Main page
METAR-TAF:

METAR-TAF

Airports :

N'Djamena International Airport

N'Djamena, Chad

latitude: 12-08N, longitude: 015-02E, elevation: 295 m

Current weather observation

The report was made 1 hour and 5 minutes ago, at 23:00 UTC
Wind 6 kt from the West/Southwest
Temperature 28°C
Humidity 58%
Pressure 1010 hPa
Visibility 10 km or more
no clouds below 1500 m and no cumulonimbus

METAR: FTTJ 172300Z 24006KT CAVOK 28/19 Q1010 NOSIG

Time: 01:05 (00:05 UTC)

Forecast

The report was made 1 hour and 5 minutes ago, at 23:00 UTC
Forecast valid from 18 at 00 UTC to 19 at 06 UTC
Wind 6 kt from the West/Southwest
Visibility 10 km or more
Few clouds at a height of 3000 ft
Temporary
from 18 at 12 UTC to 18 at 21 UTC
Wind 15 kt from variable directions with gusts up to 25 kt
Visibility: 3000 m
Scattered clouds at a height of 2500 ft
Few clouds at a height of 4000 ft, Cumulonimbus.
thunderstorm, rain

TAF: FTTJ 172300Z 1800/1906 24006KT 9999 FEW030 TEMPO 1812/1821 VRB15G25KT 3000 TSRA SCT025 FEW040CB

Weather observations and forecasts of more than 4000 airports (METAR and TAF reports).

The available stations are represented by yellow and red dots on the map.

Hover mouse over dot to see the name of the station.

Then click to see weather observations and forecasts.

To change the map : click on the green buttons with a black cross to zoom in, on the green button with a dash to zoom out, or on the green arrows for adjacent maps.


METAR-TAF: